sensor_id;sensor_type;location;lat;lon;timestamp;pressure;altitude;pressure_sealevel;temperature;humidity
48882;BME280;57063;51.406;-2.402;2023-03-24T00:01:03;98430.13;;;10.83;77.22
48882;BME280;57063;51.406;-2.402;2023-03-24T00:03:29;98422.47;;;11.01;76.62
48882;BME280;57063;51.406;-2.402;2023-03-24T00:06:00;98419.91;;;10.91;77.40
48882;BME280;57063;51.406;-2.402;2023-03-24T00:08:27;98433.59;;;11.02;76.92
48882;BME280;57063;51.406;-2.402;2023-03-24T00:10:57;98436.72;;;11.05;77.05
48882;BME280;57063;51.406;-2.402;2023-03-24T00:13:24;98427.59;;;10.54;78.90
48882;BME280;57063;51.406;-2.402;2023-03-24T00:15:50;98407.50;;;10.48;78.07
48882;BME280;57063;51.406;-2.402;2023-03-24T00:18:15;98430.00;;;10.65;78.21
48882;BME280;57063;51.406;-2.402;2023-03-24T00:20:43;98421.47;;;10.45;79.56
48882;BME280;57063;51.406;-2.402;2023-03-24T00:23:10;98443.72;;;10.17;80.80
48882;BME280;57063;51.406;-2.402;2023-03-24T00:25:36;98436.69;;;10.48;79.21
48882;BME280;57063;51.406;-2.402;2023-03-24T00:28:04;98451.56;;;10.84;77.41
48882;BME280;57063;51.406;-2.402;2023-03-24T00:30:31;98447.25;;;10.75;77.09
48882;BME280;57063;51.406;-2.402;2023-03-24T00:32:57;98442.25;;;10.63;76.72
48882;BME280;57063;51.406;-2.402;2023-03-24T00:35:23;98468.97;;;10.62;76.77
48882;BME280;57063;51.406;-2.402;2023-03-24T00:37:48;98460.31;;;10.44;78.22
48882;BME280;57063;51.406;-2.402;2023-03-24T00:40:17;98454.06;;;10.37;78.00
48882;BME280;57063;51.406;-2.402;2023-03-24T00:42:44;98475.22;;;10.50;77.68
48882;BME280;57063;51.406;-2.402;2023-03-24T00:45:13;98474.13;;;10.62;76.92
48882;BME280;57063;51.406;-2.402;2023-03-24T00:47:39;98464.91;;;10.50;76.96
48882;BME280;57063;51.406;-2.402;2023-03-24T00:50:08;98486.63;;;10.57;76.88
48882;BME280;57063;51.406;-2.402;2023-03-24T00:52:34;98478.78;;;10.49;76.65
48882;BME280;57063;51.406;-2.402;2023-03-24T00:55:01;98484.31;;;10.35;77.22
48882;BME280;57063;51.406;-2.402;2023-03-24T00:57:28;98472.19;;;10.25;77.71
48882;BME280;57063;51.406;-2.402;2023-03-24T00:59:55;98499.13;;;10.33;77.21
48882;BME280;57063;51.406;-2.402;2023-03-24T01:02:25;98485.25;;;10.34;77.36
48882;BME280;57063;51.406;-2.402;2023-03-24T01:04:58;98499.91;;;10.33;77.85
48882;BME280;57063;51.406;-2.402;2023-03-24T01:07:25;98504.81;;;10.46;77.64
48882;BME280;57063;51.406;-2.402;2023-03-24T01:09:51;98504.56;;;10.39;76.64
48882;BME280;57063;51.406;-2.402;2023-03-24T01:12:41;98514.31;;;10.55;74.82
48882;BME280;57063;51.406;-2.402;2023-03-24T01:15:12;98498.78;;;10.26;77.65
48882;BME280;57063;51.406;-2.402;2023-03-24T01:17:39;98513.16;;;10.19;77.05
48882;BME280;57063;51.406;-2.402;2023-03-24T01:20:05;98503.81;;;10.27;76.49
48882;BME280;57063;51.406;-2.402;2023-03-24T01:22:36;98521.31;;;10.24;77.14
48882;BME280;57063;51.406;-2.402;2023-03-24T01:25:07;98501.50;;;10.05;77.36
48882;BME280;57063;51.406;-2.402;2023-03-24T01:27:34;98527.41;;;10.13;77.01
48882;BME280;57063;51.406;-2.402;2023-03-24T01:30:01;98521.03;;;10.07;77.33
48882;BME280;57063;51.406;-2.402;2023-03-24T01:32:28;98520.19;;;10.07;77.17
48882;BME280;57063;51.406;-2.402;2023-03-24T01:34:53;98521.28;;;10.14;77.08
48882;BME280;57063;51.406;-2.402;2023-03-24T01:37:19;98536.75;;;10.14;76.71
48882;BME280;57063;51.406;-2.402;2023-03-24T01:39:44;98532.81;;;10.00;77.77
48882;BME280;57063;51.406;-2.402;2023-03-24T01:42:21;98542.72;;;10.05;77.17
48882;BME280;57063;51.406;-2.402;2023-03-24T01:44:49;98534.47;;;10.11;77.06
48882;BME280;57063;51.406;-2.402;2023-03-24T01:47:15;98554.25;;;10.01;77.57
48882;BME280;57063;51.406;-2.402;2023-03-24T01:49:49;98550.69;;;10.02;77.20
48882;BME280;57063;51.406;-2.402;2023-03-24T01:52:26;98548.69;;;10.05;77.02
48882;BME280;57063;51.406;-2.402;2023-03-24T01:54:57;98545.66;;;9.91;77.45
48882;BME280;57063;51.406;-2.402;2023-03-24T01:57:40;98569.34;;;10.15;76.06
48882;BME280;57063;51.406;-2.402;2023-03-24T02:00:10;98563.84;;;9.99;77.01
48882;BME280;57063;51.406;-2.402;2023-03-24T02:02:37;98563.97;;;9.88;77.94
48882;BME280;57063;51.406;-2.402;2023-03-24T02:05:08;98549.56;;;9.85;77.36
48882;BME280;57063;51.406;-2.402;2023-03-24T02:07:40;98564.22;;;9.84;77.05
48882;BME280;57063;51.406;-2.402;2023-03-24T02:10:12;98569.75;;;9.80;77.21
48882;BME280;57063;51.406;-2.402;2023-03-24T02:12:39;98559.28;;;9.20;78.93
48882;BME280;57063;51.406;-2.402;2023-03-24T02:15:07;98559.31;;;9.51;79.24
48882;BME280;57063;51.406;-2.402;2023-03-24T02:18:12;98562.81;;;9.71;78.48
48882;BME280;57063;51.406;-2.402;2023-03-24T02:34:31;98577.97;;;9.64;77.63
48882;BME280;57063;51.406;-2.402;2023-03-24T02:37:27;98570.00;;;9.77;75.93
48882;BME280;57063;51.406;-2.402;2023-03-24T02:48:29;98582.81;;;9.36;76.31
48882;BME280;57063;51.406;-2.402;2023-03-24T02:59:09;98574.41;;;9.34;76.63
48882;BME280;57063;51.406;-2.402;2023-03-24T03:01:49;98579.78;;;9.31;77.10
48882;BME280;57063;51.406;-2.402;2023-03-24T03:04:27;98572.13;;;9.20;78.00
48882;BME280;57063;51.406;-2.402;2023-03-24T03:06:56;98581.44;;;9.32;77.27
48882;BME280;57063;51.406;-2.402;2023-03-24T03:09:24;98554.88;;;9.11;76.44
48882;BME280;57063;51.406;-2.402;2023-03-24T03:11:55;98577.06;;;9.12;77.51
48882;BME280;57063;51.406;-2.402;2023-03-24T03:14:27;98562.25;;;9.04;77.84
48882;BME280;57063;51.406;-2.402;2023-03-24T03:17:06;98560.91;;;9.00;77.84
48882;BME280;57063;51.406;-2.402;2023-03-24T03:19:40;98568.53;;;8.90;78.13
48882;BME280;57063;51.406;-2.402;2023-03-24T03:22:14;98570.19;;;9.12;77.86
48882;BME280;57063;51.406;-2.402;2023-03-24T03:24:41;98580.28;;;9.04;76.85
48882;BME280;57063;51.406;-2.402;2023-03-24T03:27:13;98561.75;;;8.89;77.82
48882;BME280;57063;51.406;-2.402;2023-03-24T03:29:44;98580.41;;;9.03;78.13
48882;BME280;57063;51.406;-2.402;2023-03-24T03:32:14;98563.13;;;8.93;78.23
48882;BME280;57063;51.406;-2.402;2023-03-24T03:34:53;98588.75;;;9.16;76.96
48882;BME280;57063;51.406;-2.402;2023-03-24T03:38:01;98588.72;;;9.27;76.81
48882;BME280;57063;51.406;-2.402;2023-03-24T03:40:35;98585.94;;;9.19;76.44
48882;BME280;57063;51.406;-2.402;2023-03-24T03:43:03;98584.78;;;9.12;76.73
48882;BME280;57063;51.406;-2.402;2023-03-24T03:45:29;98585.56;;;9.03;76.35
48882;BME280;57063;51.406;-2.402;2023-03-24T03:47:55;98591.78;;;9.00;76.77
48882;BME280;57063;51.406;-2.402;2023-03-24T03:50:20;98572.25;;;8.97;76.79
48882;BME280;57063;51.406;-2.402;2023-03-24T03:52:46;98572.00;;;9.00;76.82
48882;BME280;57063;51.406;-2.402;2023-03-24T03:55:12;98568.25;;;9.05;75.59
48882;BME280;57063;51.406;-2.402;2023-03-24T03:57:38;98569.59;;;8.88;76.06
48882;BME280;57063;51.406;-2.402;2023-03-24T04:00:07;98577.09;;;8.79;75.97
48882;BME280;57063;51.406;-2.402;2023-03-24T04:05:34;98598.53;;;8.69;75.47
48882;BME280;57063;51.406;-2.402;2023-03-24T04:13:41;98591.59;;;8.26;79.68
48882;BME280;57063;51.406;-2.402;2023-03-24T04:27:11;98604.84;;;8.65;77.71
48882;BME280;57063;51.406;-2.402;2023-03-24T04:29:54;98596.41;;;8.74;77.36
48882;BME280;57063;51.406;-2.402;2023-03-24T04:33:13;98580.41;;;8.70;76.96
48882;BME280;57063;51.406;-2.402;2023-03-24T04:35:22;98593.75;;;8.75;77.11
48882;BME280;57063;51.406;-2.402;2023-03-24T04:37:57;98572.81;;;8.69;76.89
48882;BME280;57063;51.406;-2.402;2023-03-24T04:40:28;98577.06;;;8.59;76.93
48882;BME280;57063;51.406;-2.402;2023-03-24T04:42:59;98586.66;;;8.56;77.49
48882;BME280;57063;51.406;-2.402;2023-03-24T04:45:28;98576.31;;;8.68;76.92
48882;BME280;57063;51.406;-2.402;2023-03-24T04:48:00;98566.44;;;8.84;76.38
48882;BME280;57063;51.406;-2.402;2023-03-24T04:51:11;98567.19;;;9.07;75.89
48882;BME280;57063;51.406;-2.402;2023-03-24T04:53:15;98576.00;;;8.93;75.94
48882;BME280;57063;51.406;-2.402;2023-03-24T04:55:57;98580.78;;;9.19;75.02
48882;BME280;57063;51.406;-2.402;2023-03-24T04:58:24;98572.09;;;8.78;76.38
48882;BME280;57063;51.406;-2.402;2023-03-24T05:00:50;98587.72;;;8.86;76.77
48882;BME280;57063;51.406;-2.402;2023-03-24T05:03:17;98587.19;;;9.04;77.45
48882;BME280;57063;51.406;-2.402;2023-03-24T05:05:44;98586.31;;;8.93;76.46
48882;BME280;57063;51.406;-2.402;2023-03-24T05:08:10;98603.41;;;9.15;76.51
48882;BME280;57063;51.406;-2.402;2023-03-24T05:10:36;98601.97;;;9.23;76.33
48882;BME280;57063;51.406;-2.402;2023-03-24T05:13:02;98597.13;;;9.29;76.76
48882;BME280;57063;51.406;-2.402;2023-03-24T05:15:28;98609.78;;;9.21;77.05
48882;BME280;57063;51.406;-2.402;2023-03-24T05:17:54;98603.03;;;9.20;77.04
48882;BME280;57063;51.406;-2.402;2023-03-24T05:20:21;98595.59;;;9.06;77.57
48882;BME280;57063;51.406;-2.402;2023-03-24T05:22:47;98602.97;;;9.10;77.56
48882;BME280;57063;51.406;-2.402;2023-03-24T05:25:14;98605.66;;;9.30;77.06
48882;BME280;57063;51.406;-2.402;2023-03-24T05:27:40;98598.22;;;9.27;76.46
48882;BME280;57063;51.406;-2.402;2023-03-24T05:30:06;98602.28;;;9.29;76.45
48882;BME280;57063;51.406;-2.402;2023-03-24T05:32:31;98612.13;;;9.24;77.60
48882;BME280;57063;51.406;-2.402;2023-03-24T05:34:57;98617.03;;;9.27;76.93
48882;BME280;57063;51.406;-2.402;2023-03-24T05:37:22;98618.88;;;9.36;76.31
48882;BME280;57063;51.406;-2.402;2023-03-24T05:39:48;98630.81;;;9.05;77.52
48882;BME280;57063;51.406;-2.402;2023-03-24T05:42:14;98621.50;;;9.25;78.63
48882;BME280;57063;51.406;-2.402;2023-03-24T05:44:40;98622.38;;;9.35;77.24
48882;BME280;57063;51.406;-2.402;2023-03-24T05:47:05;98627.06;;;9.30;77.45
48882;BME280;57063;51.406;-2.402;2023-03-24T05:49:31;98620.50;;;9.37;77.46
48882;BME280;57063;51.406;-2.402;2023-03-24T05:51:56;98613.19;;;9.42;76.53
48882;BME280;57063;51.406;-2.402;2023-03-24T05:54:22;98601.59;;;9.27;76.96
48882;BME280;57063;51.406;-2.402;2023-03-24T05:56:48;98631.56;;;9.49;76.40
48882;BME280;57063;51.406;-2.402;2023-03-24T05:59:13;98621.63;;;9.45;77.25
48882;BME280;57063;51.406;-2.402;2023-03-24T06:01:39;98615.47;;;9.36;77.58
48882;BME280;57063;51.406;-2.402;2023-03-24T06:04:06;98619.75;;;9.47;77.75
48882;BME280;57063;51.406;-2.402;2023-03-24T06:06:32;98632.53;;;9.58;77.49
48882;BME280;57063;51.406;-2.402;2023-03-24T06:08:57;98636.44;;;9.73;76.87
48882;BME280;57063;51.406;-2.402;2023-03-24T06:11:26;98624.38;;;9.53;77.54
48882;BME280;57063;51.406;-2.402;2023-03-24T06:13:52;98638.38;;;9.60;77.04
48882;BME280;57063;51.406;-2.402;2023-03-24T06:16:17;98633.97;;;9.72;76.88
48882;BME280;57063;51.406;-2.402;2023-03-24T06:18:47;98629.53;;;9.74;76.95
48882;BME280;57063;51.406;-2.402;2023-03-24T06:21:16;98624.16;;;9.86;76.03
48882;BME280;57063;51.406;-2.402;2023-03-24T06:23:42;98630.00;;;9.89;76.37
48882;BME280;57063;51.406;-2.402;2023-03-24T06:26:09;98630.78;;;10.10;75.59
48882;BME280;57063;51.406;-2.402;2023-03-24T06:28:35;98626.28;;;10.02;75.30
48882;BME280;57063;51.406;-2.402;2023-03-24T06:31:08;98639.31;;;10.32;75.06
48882;BME280;57063;51.406;-2.402;2023-03-24T06:33:40;98648.53;;;10.03;76.24
48882;BME280;57063;51.406;-2.402;2023-03-24T06:36:07;98644.25;;;10.23;74.99
48882;BME280;57063;51.406;-2.402;2023-03-24T06:38:32;98627.59;;;10.27;74.83
48882;BME280;57063;51.406;-2.402;2023-03-24T06:41:02;98658.97;;;10.63;75.04
48882;BME280;57063;51.406;-2.402;2023-03-24T06:43:28;98649.56;;;10.62;73.64
48882;BME280;57063;51.406;-2.402;2023-03-24T06:45:54;98646.63;;;10.77;73.89
48882;BME280;57063;51.406;-2.402;2023-03-24T06:48:20;98650.78;;;10.68;74.03
48882;BME280;57063;51.406;-2.402;2023-03-24T06:50:45;98647.16;;;10.70;73.10
48882;BME280;57063;51.406;-2.402;2023-03-24T06:53:11;98646.75;;;10.85;74.23
48882;BME280;57063;51.406;-2.402;2023-03-24T06:55:36;98649.91;;;10.98;73.23
48882;BME280;57063;51.406;-2.402;2023-03-24T06:58:02;98666.09;;;11.00;73.34
48882;BME280;57063;51.406;-2.402;2023-03-24T07:00:28;98654.50;;;10.95;73.45
48882;BME280;57063;51.406;-2.402;2023-03-24T07:02:54;98669.63;;;11.19;73.50
48882;BME280;57063;51.406;-2.402;2023-03-24T07:05:20;98654.78;;;11.50;71.96
48882;BME280;57063;51.406;-2.402;2023-03-24T07:07:46;98669.09;;;11.44;72.86
48882;BME280;57063;51.406;-2.402;2023-03-24T07:10:13;98670.84;;;11.63;72.73
48882;BME280;57063;51.406;-2.402;2023-03-24T07:12:39;98654.34;;;11.93;72.26
48882;BME280;57063;51.406;-2.402;2023-03-24T07:15:05;98662.63;;;11.68;72.43
48882;BME280;57063;51.406;-2.402;2023-03-24T07:17:32;98655.56;;;11.89;71.43
48882;BME280;57063;51.406;-2.402;2023-03-24T07:19:58;98653.16;;;12.15;72.10
48882;BME280;57063;51.406;-2.402;2023-03-24T07:22:23;98648.91;;;11.87;70.92
48882;BME280;57063;51.406;-2.402;2023-03-24T07:24:48;98666.53;;;12.38;71.24
48882;BME280;57063;51.406;-2.402;2023-03-24T07:27:14;98656.41;;;12.73;68.98
48882;BME280;57063;51.406;-2.402;2023-03-24T07:29:39;98653.34;;;12.87;67.25
48882;BME280;57063;51.406;-2.402;2023-03-24T07:32:05;98655.19;;;12.95;68.76
48882;BME280;57063;51.406;-2.402;2023-03-24T07:34:32;98661.16;;;12.77;68.72
48882;BME280;57063;51.406;-2.402;2023-03-24T07:36:57;98664.25;;;12.63;67.92
48882;BME280;57063;51.406;-2.402;2023-03-24T07:39:23;98656.75;;;12.88;68.41
48882;BME280;57063;51.406;-2.402;2023-03-24T07:41:48;98668.13;;;14.19;63.67
48882;BME280;57063;51.406;-2.402;2023-03-24T07:44:14;98650.59;;;15.88;59.55
48882;BME280;57063;51.406;-2.402;2023-03-24T07:46:40;98669.31;;;16.78;56.68
48882;BME280;57063;51.406;-2.402;2023-03-24T07:49:05;98685.16;;;19.09;52.50
48882;BME280;57063;51.406;-2.402;2023-03-24T07:51:32;98698.31;;;19.87;53.21
48882;BME280;57063;51.406;-2.402;2023-03-24T07:53:57;98686.88;;;19.88;49.97
48882;BME280;57063;51.406;-2.402;2023-03-24T07:56:23;98698.50;;;20.97;46.40
48882;BME280;57063;51.406;-2.402;2023-03-24T07:58:54;98686.19;;;22.37;44.27
48882;BME280;57063;51.406;-2.402;2023-03-24T08:01:25;98705.16;;;22.97;42.06
48882;BME280;57063;51.406;-2.402;2023-03-24T08:03:51;98715.75;;;22.26;42.93
48882;BME280;57063;51.406;-2.402;2023-03-24T08:06:20;98697.81;;;18.10;50.95
48882;BME280;57063;51.406;-2.402;2023-03-24T08:08:45;98707.56;;;16.69;53.38
48882;BME280;57063;51.406;-2.402;2023-03-24T08:11:11;98699.75;;;18.67;50.63
48882;BME280;57063;51.406;-2.402;2023-03-24T08:13:36;98696.53;;;17.91;51.22
48882;BME280;57063;51.406;-2.402;2023-03-24T08:16:02;98691.84;;;18.16;49.88
48882;BME280;57063;51.406;-2.402;2023-03-24T08:18:29;98696.19;;;17.02;53.17
48882;BME280;57063;51.406;-2.402;2023-03-24T08:20:57;98695.28;;;17.18;54.28
48882;BME280;57063;51.406;-2.402;2023-03-24T08:23:23;98690.41;;;20.08;48.88
48882;BME280;57063;51.406;-2.402;2023-03-24T08:25:49;98688.00;;;24.75;39.81
48882;BME280;57063;51.406;-2.402;2023-03-24T08:28:15;98683.56;;;24.88;38.24
48882;BME280;57063;51.406;-2.402;2023-03-24T08:30:41;98679.50;;;25.81;37.53
48882;BME280;57063;51.406;-2.402;2023-03-24T08:33:11;98695.66;;;27.13;33.94
48882;BME280;57063;51.406;-2.402;2023-03-24T08:35:37;98703.03;;;28.73;32.46
48882;BME280;57063;51.406;-2.402;2023-03-24T08:38:04;98724.63;;;28.59;30.96
48882;BME280;57063;51.406;-2.402;2023-03-24T08:40:30;98711.47;;;29.51;30.63
48882;BME280;57063;51.406;-2.402;2023-03-24T08:43:00;98729.34;;;31.60;27.27
48882;BME280;57063;51.406;-2.402;2023-03-24T08:45:29;98713.22;;;30.73;27.03
48882;BME280;57063;51.406;-2.402;2023-03-24T08:47:57;98710.13;;;31.17;26.91
48882;BME280;57063;51.406;-2.402;2023-03-24T08:50:26;98729.44;;;32.46;26.98
48882;BME280;57063;51.406;-2.402;2023-03-24T08:52:53;98738.06;;;31.04;26.30
48882;BME280;57063;51.406;-2.402;2023-03-24T08:55:20;98736.59;;;33.50;25.44
48882;BME280;57063;51.406;-2.402;2023-03-24T08:57:46;98729.88;;;31.67;25.62
48882;BME280;57063;51.406;-2.402;2023-03-24T09:00:13;98744.25;;;30.42;27.70
48882;BME280;57063;51.406;-2.402;2023-03-24T09:02:40;98736.53;;;31.34;26.86
48882;BME280;57063;51.406;-2.402;2023-03-24T09:05:07;98762.97;;;31.51;26.22
48882;BME280;57063;51.406;-2.402;2023-03-24T09:07:32;98765.72;;;33.17;24.24
48882;BME280;57063;51.406;-2.402;2023-03-24T09:09:58;98748.81;;;31.76;26.20
48882;BME280;57063;51.406;-2.402;2023-03-24T09:12:23;98767.81;;;29.21;27.56
48882;BME280;57063;51.406;-2.402;2023-03-24T09:14:49;98770.00;;;26.54;31.98
48882;BME280;57063;51.406;-2.402;2023-03-24T09:17:15;98770.69;;;31.88;25.07
48882;BME280;57063;51.406;-2.402;2023-03-24T09:19:41;98741.44;;;30.69;25.04
48882;BME280;57063;51.406;-2.402;2023-03-24T09:22:07;98742.59;;;24.75;35.07
48882;BME280;57063;51.406;-2.402;2023-03-24T09:24:32;98743.03;;;22.11;39.16
48882;BME280;57063;51.406;-2.402;2023-03-24T09:26:57;98726.78;;;20.25;43.03
48882;BME280;57063;51.406;-2.402;2023-03-24T09:29:23;98716.03;;;23.71;35.42
48882;BME280;57063;51.406;-2.402;2023-03-24T09:31:48;98746.44;;;24.17;35.48
48882;BME280;57063;51.406;-2.402;2023-03-24T09:34:14;98754.72;;;22.42;38.73
48882;BME280;57063;51.406;-2.402;2023-03-24T09:36:40;98745.16;;;26.19;32.71
48882;BME280;57063;51.406;-2.402;2023-03-24T09:39:05;98745.34;;;25.71;33.53
48882;BME280;57063;51.406;-2.402;2023-03-24T09:41:31;98722.00;;;23.53;35.26
48882;BME280;57063;51.406;-2.402;2023-03-24T09:44:07;98762.47;;;25.08;35.12
48882;BME280;57063;51.406;-2.402;2023-03-24T09:46:40;98719.41;;;21.45;40.55
48882;BME280;57063;51.406;-2.402;2023-03-24T09:49:12;98752.72;;;23.02;37.06
48882;BME280;57063;51.406;-2.402;2023-03-24T09:51:43;98715.78;;;21.86;39.83
48882;BME280;57063;51.406;-2.402;2023-03-24T09:54:30;98739.72;;;24.40;36.51
48882;BME280;57063;51.406;-2.402;2023-03-24T09:57:03;98714.44;;;26.18;32.75
48882;BME280;57063;51.406;-2.402;2023-03-24T09:59:37;98700.41;;;23.76;35.64
48882;BME280;57063;51.406;-2.402;2023-03-24T10:02:11;98709.88;;;21.97;41.32
48882;BME280;57063;51.406;-2.402;2023-03-24T10:04:38;98703.63;;;20.63;41.43
48882;BME280;57063;51.406;-2.402;2023-03-24T10:09:55;98672.19;;;20.70;40.91
48882;BME280;57063;51.406;-2.402;2023-03-24T10:12:37;98668.50;;;20.58;40.68
48882;BME280;57063;51.406;-2.402;2023-03-24T10:20:40;98694.78;;;22.71;38.17
48882;BME280;57063;51.406;-2.402;2023-03-24T10:25:59;98877.44;;;26.78;33.20
48882;BME280;57063;51.406;-2.402;2023-03-24T10:28:34;98706.78;;;27.94;29.01
48882;BME280;57063;51.406;-2.402;2023-03-24T10:31:08;98700.22;;;21.77;37.18
48882;BME280;57063;51.406;-2.402;2023-03-24T10:33:36;98714.38;;;18.76;43.92
48882;BME280;57063;51.406;-2.402;2023-03-24T10:38:32;98689.53;;;19.02;47.42
48882;BME280;57063;51.406;-2.402;2023-03-24T10:41:01;98673.59;;;18.82;47.17
48882;BME280;57063;51.406;-2.402;2023-03-24T10:43:28;98717.47;;;27.48;34.62
48882;BME280;57063;51.406;-2.402;2023-03-24T10:46:05;98710.63;;;29.78;28.03
48882;BME280;57063;51.406;-2.402;2023-03-24T10:51:18;98705.88;;;28.05;27.86
48882;BME280;57063;51.406;-2.402;2023-03-24T13:08:45;98618.66;;;18.97;49.21
48882;BME280;57063;51.406;-2.402;2023-03-24T13:38:42;98633.44;;;20.59;46.61
48882;BME280;57063;51.406;-2.402;2023-03-24T13:50:12;98594.38;;;19.53;47.55
48882;BME280;57063;51.406;-2.402;2023-03-24T13:52:39;98594.72;;;18.06;68.43
48882;BME280;57063;51.406;-2.402;2023-03-24T13:55:14;98610.84;;;16.02;71.83
48882;BME280;57063;51.406;-2.402;2023-03-24T13:57:41;98600.16;;;17.51;61.90
48882;BME280;57063;51.406;-2.402;2023-03-24T14:00:24;98586.06;;;19.42;52.80
48882;BME280;57063;51.406;-2.402;2023-03-24T14:03:30;98588.50;;;19.44;52.40
48882;BME280;57063;51.406;-2.402;2023-03-24T14:06:23;98629.50;;;19.15;52.05
48882;BME280;57063;51.406;-2.402;2023-03-24T14:09:23;98621.47;;;18.59;51.97
48882;BME280;57063;51.406;-2.402;2023-03-24T14:17:43;98616.69;;;18.63;52.07
48882;BME280;57063;51.406;-2.402;2023-03-24T14:20:28;98614.31;;;18.68;50.92
48882;BME280;57063;51.406;-2.402;2023-03-24T14:23:45;98579.19;;;18.19;48.54
48882;BME280;57063;51.406;-2.402;2023-03-24T14:25:55;98605.00;;;17.40;50.89
48882;BME280;57063;51.406;-2.402;2023-03-24T14:28:38;98600.69;;;18.00;49.98
48882;BME280;57063;51.406;-2.402;2023-03-24T14:36:30;98569.81;;;18.39;49.41
48882;BME280;57063;51.406;-2.402;2023-03-24T14:41:39;98586.41;;;16.11;55.95
48882;BME280;57063;51.406;-2.402;2023-03-24T14:44:05;98592.84;;;17.32;57.87
48882;BME280;57063;51.406;-2.402;2023-03-24T14:46:46;98602.72;;;17.22;59.18
48882;BME280;57063;51.406;-2.402;2023-03-24T14:49:28;98595.25;;;17.33;61.33
48882;BME280;57063;51.406;-2.402;2023-03-24T14:55:04;98558.00;;;16.87;60.81
48882;BME280;57063;51.406;-2.402;2023-03-24T14:57:38;98554.59;;;16.63;58.68
48882;BME280;57063;51.406;-2.402;2023-03-24T15:02:52;98623.34;;;16.07;59.31
48882;BME280;57063;51.406;-2.402;2023-03-24T15:13:39;98612.88;;;15.02;60.50
48882;BME280;57063;51.406;-2.402;2023-03-24T15:19:03;98602.00;;;15.63;58.44
48882;BME280;57063;51.406;-2.402;2023-03-24T15:21:38;98609.63;;;15.73;58.21
48882;BME280;57063;51.406;-2.402;2023-03-24T15:24:22;98599.66;;;16.33;56.17
48882;BME280;57063;51.406;-2.402;2023-03-24T15:26:55;98594.53;;;16.16;57.43
48882;BME280;57063;51.406;-2.402;2023-03-24T15:29:36;98598.38;;;15.89;57.17
48882;BME280;57063;51.406;-2.402;2023-03-24T15:32:02;98633.38;;;15.37;61.49
48882;BME280;57063;51.406;-2.402;2023-03-24T15:34:55;98581.56;;;14.70;63.13
48882;BME280;57063;51.406;-2.402;2023-03-24T15:37:30;98580.09;;;15.41;64.99
48882;BME280;57063;51.406;-2.402;2023-03-24T15:39:56;98609.63;;;15.40;64.80
48882;BME280;57063;51.406;-2.402;2023-03-24T15:42:23;98610.25;;;16.31;60.30
48882;BME280;57063;51.406;-2.402;2023-03-24T15:44:50;98574.34;;;16.18;58.30
48882;BME280;57063;51.406;-2.402;2023-03-24T15:49:50;98588.25;;;16.34;58.45
48882;BME280;57063;51.406;-2.402;2023-03-24T15:52:36;98580.72;;;16.78;56.61
48882;BME280;57063;51.406;-2.402;2023-03-24T15:55:29;98609.31;;;16.86;56.28
48882;BME280;57063;51.406;-2.402;2023-03-24T15:57:58;98570.13;;;17.03;56.37
48882;BME280;57063;51.406;-2.402;2023-03-24T16:00:28;98558.28;;;16.69;57.30
48882;BME280;57063;51.406;-2.402;2023-03-24T16:02:59;98577.50;;;16.68;56.79
48882;BME280;57063;51.406;-2.402;2023-03-24T16:05:28;98573.00;;;16.31;57.49
48882;BME280;57063;51.406;-2.402;2023-03-24T16:13:10;98546.00;;;15.20;60.13
48882;BME280;57063;51.406;-2.402;2023-03-24T16:15:36;98599.56;;;14.80;60.23
48882;BME280;57063;51.406;-2.402;2023-03-24T16:18:02;98583.97;;;14.80;59.55
48882;BME280;57063;51.406;-2.402;2023-03-24T16:20:31;98573.91;;;15.26;59.84
48882;BME280;57063;51.406;-2.402;2023-03-24T16:23:02;98573.59;;;14.96;58.00
48882;BME280;57063;51.406;-2.402;2023-03-24T16:25:27;98585.28;;;15.33;59.20
48882;BME280;57063;51.406;-2.402;2023-03-24T16:27:53;98579.59;;;14.81;58.13
48882;BME280;57063;51.406;-2.402;2023-03-24T16:30:21;98576.19;;;14.80;58.95
48882;BME280;57063;51.406;-2.402;2023-03-24T16:32:49;98578.00;;;14.29;59.71
48882;BME280;57063;51.406;-2.402;2023-03-24T16:35:15;98572.59;;;14.57;59.74
48882;BME280;57063;51.406;-2.402;2023-03-24T16:37:40;98583.09;;;14.04;60.80
48882;BME280;57063;51.406;-2.402;2023-03-24T16:40:22;98584.78;;;14.64;59.35
48882;BME280;57063;51.406;-2.402;2023-03-24T16:42:50;98596.66;;;14.32;60.20
48882;BME280;57063;51.406;-2.402;2023-03-24T16:45:15;98588.06;;;14.99;60.43
48882;BME280;57063;51.406;-2.402;2023-03-24T16:47:41;98574.09;;;14.25;62.38
48882;BME280;57063;51.406;-2.402;2023-03-24T16:50:29;98620.69;;;15.02;63.06
48882;BME280;57063;51.406;-2.402;2023-03-24T16:52:56;98629.84;;;14.12;100.00
48882;BME280;57063;51.406;-2.402;2023-03-24T16:55:22;98611.91;;;14.35;71.72
48882;BME280;57063;51.406;-2.402;2023-03-24T16:57:47;98586.88;;;14.69;69.73
48882;BME280;57063;51.406;-2.402;2023-03-24T17:00:13;98582.19;;;14.97;67.81
48882;BME280;57063;51.406;-2.402;2023-03-24T17:02:39;98592.09;;;15.43;67.12
48882;BME280;57063;51.406;-2.402;2023-03-24T17:05:21;98583.34;;;15.27;65.86
48882;BME280;57063;51.406;-2.402;2023-03-24T17:07:47;98616.06;;;14.63;64.66
48882;BME280;57063;51.406;-2.402;2023-03-24T17:10:12;98612.81;;;14.18;67.20
48882;BME280;57063;51.406;-2.402;2023-03-24T17:12:38;98591.59;;;14.23;66.25
48882;BME280;57063;51.406;-2.402;2023-03-24T17:15:04;98602.47;;;14.61;63.95
48882;BME280;57063;51.406;-2.402;2023-03-24T17:17:30;98624.19;;;14.68;63.62
48882;BME280;57063;51.406;-2.402;2023-03-24T17:19:55;98607.72;;;14.43;62.58
48882;BME280;57063;51.406;-2.402;2023-03-24T17:22:22;98610.22;;;14.18;61.99
48882;BME280;57063;51.406;-2.402;2023-03-24T17:24:50;98626.06;;;14.07;59.57
48882;BME280;57063;51.406;-2.402;2023-03-24T17:27:22;98601.22;;;13.70;60.64
48882;BME280;57063;51.406;-2.402;2023-03-24T17:29:48;98598.66;;;14.04;59.53
48882;BME280;57063;51.406;-2.402;2023-03-24T17:32:13;98612.97;;;14.17;59.43
48882;BME280;57063;51.406;-2.402;2023-03-24T17:34:41;98607.06;;;13.98;59.22
48882;BME280;57063;51.406;-2.402;2023-03-24T17:37:06;98603.84;;;14.04;59.05
48882;BME280;57063;51.406;-2.402;2023-03-24T17:39:32;98610.59;;;13.97;58.79
48882;BME280;57063;51.406;-2.402;2023-03-24T17:41:57;98597.38;;;13.48;59.21